sensor_id;sensor_type;location;lat;lon;timestamp;P1;durP1;ratioP1;P2;durP2;ratioP2
11887;SDS011;6003;42.756;23.130;2022-10-28T00:01:30;3.60;;;1.87;;
11887;SDS011;6003;42.756;23.130;2022-10-28T00:03:59;1.70;;;1.60;;
11887;SDS011;6003;42.756;23.130;2022-10-28T00:06:26;2.67;;;2.20;;
11887;SDS011;6003;42.756;23.130;2022-10-28T00:09:13;1.60;;;1.50;;
11887;SDS011;6003;42.756;23.130;2022-10-28T00:11:40;2.23;;;2.13;;
11887;SDS011;6003;42.756;23.130;2022-10-28T00:14:08;2.13;;;1.73;;
11887;SDS011;6003;42.756;23.130;2022-10-28T00:16:36;2.77;;;2.13;;
11887;SDS011;6003;42.756;23.130;2022-10-28T00:19:05;2.10;;;1.90;;
11887;SDS011;6003;42.756;23.130;2022-10-28T00:21:33;1.80;;;1.70;;
11887;SDS011;6003;42.756;23.130;2022-10-28T00:24:01;2.20;;;2.00;;
11887;SDS011;6003;42.756;23.130;2022-10-28T00:26:29;2.77;;;2.20;;
11887;SDS011;6003;42.756;23.130;2022-10-28T00:28:58;4.30;;;1.97;;
11887;SDS011;6003;42.756;23.130;2022-10-28T00:31:26;1.90;;;1.80;;
11887;SDS011;6003;42.756;23.130;2022-10-28T00:33:54;1.80;;;1.70;;
11887;SDS011;6003;42.756;23.130;2022-10-28T00:36:24;2.13;;;1.93;;
11887;SDS011;6003;42.756;23.130;2022-10-28T00:41:39;2.97;;;2.00;;
11887;SDS011;6003;42.756;23.130;2022-10-28T00:47:10;4.20;;;2.00;;
11887;SDS011;6003;42.756;23.130;2022-10-28T00:49:40;2.20;;;2.00;;
11887;SDS011;6003;42.756;23.130;2022-10-28T00:52:11;2.30;;;2.10;;
11887;SDS011;6003;42.756;23.130;2022-10-28T00:54:44;2.10;;;1.67;;
11887;SDS011;6003;42.756;23.130;2022-10-28T00:57:12;2.67;;;1.67;;
11887;SDS011;6003;42.756;23.130;2022-10-28T01:02:46;2.30;;;2.00;;
11887;SDS011;6003;42.756;23.130;2022-10-28T01:05:15;4.07;;;1.67;;
11887;SDS011;6003;42.756;23.130;2022-10-28T01:07:47;3.40;;;1.67;;
11887;SDS011;6003;42.756;23.130;2022-10-28T01:10:16;2.07;;;1.87;;
11887;SDS011;6003;42.756;23.130;2022-10-28T01:12:47;2.13;;;1.80;;
11887;SDS011;6003;42.756;23.130;2022-10-28T01:15:26;2.60;;;2.00;;
11887;SDS011;6003;42.756;23.130;2022-10-28T01:18:03;2.27;;;2.00;;
11887;SDS011;6003;42.756;23.130;2022-10-28T01:21:00;2.83;;;2.03;;
11887;SDS011;6003;42.756;23.130;2022-10-28T01:23:46;1.80;;;1.70;;
11887;SDS011;6003;42.756;23.130;2022-10-28T01:26:35;2.07;;;1.77;;
11887;SDS011;6003;42.756;23.130;2022-10-28T01:29:22;5.63;;;2.07;;
11887;SDS011;6003;42.756;23.130;2022-10-28T01:32:04;2.23;;;2.03;;
11887;SDS011;6003;42.756;23.130;2022-10-28T01:34:37;1.90;;;1.80;;
11887;SDS011;6003;42.756;23.130;2022-10-28T01:37:16;2.43;;;2.23;;
11887;SDS011;6003;42.756;23.130;2022-10-28T01:39:53;6.43;;;2.37;;
11887;SDS011;6003;42.756;23.130;2022-10-28T01:42:29;2.40;;;2.00;;
11887;SDS011;6003;42.756;23.130;2022-10-28T01:45:02;2.20;;;2.10;;
11887;SDS011;6003;42.756;23.130;2022-10-28T01:47:41;1.90;;;1.80;;
11887;SDS011;6003;42.756;23.130;2022-10-28T01:50:13;2.80;;;2.00;;
11887;SDS011;6003;42.756;23.130;2022-10-28T01:52:47;2.07;;;1.87;;
11887;SDS011;6003;42.756;23.130;2022-10-28T01:55:19;2.00;;;1.90;;
11887;SDS011;6003;42.756;23.130;2022-10-28T01:57:49;2.00;;;1.73;;
11887;SDS011;6003;42.756;23.130;2022-10-28T02:00:17;4.27;;;2.33;;
11887;SDS011;6003;42.756;23.130;2022-10-28T02:02:46;2.20;;;1.80;;
11887;SDS011;6003;42.756;23.130;2022-10-28T02:08:05;2.47;;;2.27;;
11887;SDS011;6003;42.756;23.130;2022-10-28T02:10:55;3.53;;;2.13;;
11887;SDS011;6003;42.756;23.130;2022-10-28T02:13:33;1.97;;;1.70;;
11887;SDS011;6003;42.756;23.130;2022-10-28T02:16:12;2.20;;;2.00;;
11887;SDS011;6003;42.756;23.130;2022-10-28T02:22:28;2.03;;;1.83;;
11887;SDS011;6003;42.756;23.130;2022-10-28T02:25:00;1.90;;;1.80;;
11887;SDS011;6003;42.756;23.130;2022-10-28T02:27:33;1.97;;;1.87;;
11887;SDS011;6003;42.756;23.130;2022-10-28T02:33:15;2.10;;;2.00;;
11887;SDS011;6003;42.756;23.130;2022-10-28T02:35:47;1.70;;;1.60;;
11887;SDS011;6003;42.756;23.130;2022-10-28T02:38:19;2.53;;;1.87;;
11887;SDS011;6003;42.756;23.130;2022-10-28T02:40:50;2.17;;;2.07;;
11887;SDS011;6003;42.756;23.130;2022-10-28T02:43:21;2.20;;;2.00;;
11887;SDS011;6003;42.756;23.130;2022-10-28T02:45:51;1.80;;;1.70;;
11887;SDS011;6003;42.756;23.130;2022-10-28T02:48:24;2.23;;;1.80;;
11887;SDS011;6003;42.756;23.130;2022-10-28T02:50:54;2.60;;;1.87;;
11887;SDS011;6003;42.756;23.130;2022-10-28T02:53:29;2.13;;;1.80;;
11887;SDS011;6003;42.756;23.130;2022-10-28T02:56:01;2.60;;;2.40;;
11887;SDS011;6003;42.756;23.130;2022-10-28T02:58:36;2.37;;;1.53;;
11887;SDS011;6003;42.756;23.130;2022-10-28T03:01:04;1.83;;;1.73;;
11887;SDS011;6003;42.756;23.130;2022-10-28T03:03:31;3.07;;;1.83;;
11887;SDS011;6003;42.756;23.130;2022-10-28T03:05:58;1.67;;;1.57;;
11887;SDS011;6003;42.756;23.130;2022-10-28T03:08:25;2.30;;;2.10;;
11887;SDS011;6003;42.756;23.130;2022-10-28T03:10:53;2.60;;;1.60;;
11887;SDS011;6003;42.756;23.130;2022-10-28T03:13:20;1.57;;;1.47;;
11887;SDS011;6003;42.756;23.130;2022-10-28T03:15:47;1.80;;;1.70;;
11887;SDS011;6003;42.756;23.130;2022-10-28T03:18:14;1.73;;;1.63;;
11887;SDS011;6003;42.756;23.130;2022-10-28T03:20:41;2.47;;;2.27;;
11887;SDS011;6003;42.756;23.130;2022-10-28T03:23:08;2.30;;;2.13;;
11887;SDS011;6003;42.756;23.130;2022-10-28T03:25:34;3.23;;;2.17;;
11887;SDS011;6003;42.756;23.130;2022-10-28T03:28:03;2.57;;;2.17;;
11887;SDS011;6003;42.756;23.130;2022-10-28T03:30:30;1.70;;;1.60;;
11887;SDS011;6003;42.756;23.130;2022-10-28T03:32:56;2.00;;;1.90;;
11887;SDS011;6003;42.756;23.130;2022-10-28T03:35:23;1.93;;;1.83;;
11887;SDS011;6003;42.756;23.130;2022-10-28T03:37:50;1.80;;;1.70;;
11887;SDS011;6003;42.756;23.130;2022-10-28T03:40:17;2.23;;;1.90;;
11887;SDS011;6003;42.756;23.130;2022-10-28T03:42:44;4.17;;;1.93;;
11887;SDS011;6003;42.756;23.130;2022-10-28T03:45:12;2.80;;;1.80;;
11887;SDS011;6003;42.756;23.130;2022-10-28T03:47:39;2.00;;;1.90;;
11887;SDS011;6003;42.756;23.130;2022-10-28T03:50:06;2.27;;;2.03;;
11887;SDS011;6003;42.756;23.130;2022-10-28T03:52:34;2.20;;;2.00;;
11887;SDS011;6003;42.756;23.130;2022-10-28T03:55:01;3.27;;;2.27;;
11887;SDS011;6003;42.756;23.130;2022-10-28T03:57:28;3.10;;;1.90;;
11887;SDS011;6003;42.756;23.130;2022-10-28T03:59:56;2.10;;;1.80;;
11887;SDS011;6003;42.756;23.130;2022-10-28T04:02:24;2.50;;;2.30;;
11887;SDS011;6003;42.756;23.130;2022-10-28T04:04:51;1.83;;;1.73;;
11887;SDS011;6003;42.756;23.130;2022-10-28T04:07:18;2.43;;;2.00;;
11887;SDS011;6003;42.756;23.130;2022-10-28T04:12:35;2.13;;;2.03;;
11887;SDS011;6003;42.756;23.130;2022-10-28T04:15:03;1.80;;;1.70;;
11887;SDS011;6003;42.756;23.130;2022-10-28T04:17:32;2.17;;;1.93;;
11887;SDS011;6003;42.756;23.130;2022-10-28T04:19:59;1.93;;;1.80;;
11887;SDS011;6003;42.756;23.130;2022-10-28T04:22:26;4.47;;;1.87;;
11887;SDS011;6003;42.756;23.130;2022-10-28T04:24:53;2.27;;;2.13;;
11887;SDS011;6003;42.756;23.130;2022-10-28T04:27:19;3.33;;;2.10;;
11887;SDS011;6003;42.756;23.130;2022-10-28T04:29:46;2.47;;;2.27;;
11887;SDS011;6003;42.756;23.130;2022-10-28T04:32:13;3.03;;;2.00;;
11887;SDS011;6003;42.756;23.130;2022-10-28T04:34:41;1.90;;;1.80;;
11887;SDS011;6003;42.756;23.130;2022-10-28T04:37:08;2.33;;;2.07;;
11887;SDS011;6003;42.756;23.130;2022-10-28T04:39:35;4.53;;;2.23;;
11887;SDS011;6003;42.756;23.130;2022-10-28T04:42:01;2.30;;;2.10;;
11887;SDS011;6003;42.756;23.130;2022-10-28T04:44:28;2.47;;;2.00;;
11887;SDS011;6003;42.756;23.130;2022-10-28T04:46:55;2.50;;;2.30;;
11887;SDS011;6003;42.756;23.130;2022-10-28T04:49:22;3.33;;;2.03;;
11887;SDS011;6003;42.756;23.130;2022-10-28T04:51:50;2.43;;;2.17;;
11887;SDS011;6003;42.756;23.130;2022-10-28T04:54:17;2.57;;;2.37;;
11887;SDS011;6003;42.756;23.130;2022-10-28T04:56:44;3.93;;;2.37;;
11887;SDS011;6003;42.756;23.130;2022-10-28T04:59:11;3.10;;;2.33;;
11887;SDS011;6003;42.756;23.130;2022-10-28T05:01:38;2.20;;;2.00;;
11887;SDS011;6003;42.756;23.130;2022-10-28T05:04:05;2.33;;;2.13;;
11887;SDS011;6003;42.756;23.130;2022-10-28T05:06:32;2.53;;;2.13;;
11887;SDS011;6003;42.756;23.130;2022-10-28T05:09:00;2.60;;;2.40;;
11887;SDS011;6003;42.756;23.130;2022-10-28T05:11:27;3.07;;;2.47;;
11887;SDS011;6003;42.756;23.130;2022-10-28T05:13:53;2.53;;;2.30;;
11887;SDS011;6003;42.756;23.130;2022-10-28T05:16:20;2.73;;;2.50;;
11887;SDS011;6003;42.756;23.130;2022-10-28T05:22:09;2.40;;;2.20;;
11887;SDS011;6003;42.756;23.130;2022-10-28T05:24:37;3.27;;;2.97;;
11887;SDS011;6003;42.756;23.130;2022-10-28T05:27:04;6.33;;;2.73;;
11887;SDS011;6003;42.756;23.130;2022-10-28T05:29:31;5.83;;;2.83;;
11887;SDS011;6003;42.756;23.130;2022-10-28T05:31:58;4.03;;;3.50;;
11887;SDS011;6003;42.756;23.130;2022-10-28T05:34:26;3.37;;;2.87;;
11887;SDS011;6003;42.756;23.130;2022-10-28T05:36:52;3.60;;;2.87;;
11887;SDS011;6003;42.756;23.130;2022-10-28T05:39:19;7.00;;;3.00;;
11887;SDS011;6003;42.756;23.130;2022-10-28T05:41:48;3.17;;;2.87;;
11887;SDS011;6003;42.756;23.130;2022-10-28T05:44:14;3.17;;;2.87;;
11887;SDS011;6003;42.756;23.130;2022-10-28T05:46:41;4.10;;;3.30;;
11887;SDS011;6003;42.756;23.130;2022-10-28T05:49:08;4.70;;;3.07;;
11887;SDS011;6003;42.756;23.130;2022-10-28T05:51:35;3.87;;;3.03;;
11887;SDS011;6003;42.756;23.130;2022-10-28T05:54:02;4.83;;;2.97;;
11887;SDS011;6003;42.756;23.130;2022-10-28T05:56:29;9.20;;;3.53;;
11887;SDS011;6003;42.756;23.130;2022-10-28T05:59:00;4.63;;;3.33;;
11887;SDS011;6003;42.756;23.130;2022-10-28T06:01:27;4.40;;;3.83;;
11887;SDS011;6003;42.756;23.130;2022-10-28T06:03:54;4.67;;;3.37;;
11887;SDS011;6003;42.756;23.130;2022-10-28T06:06:21;4.33;;;3.43;;
11887;SDS011;6003;42.756;23.130;2022-10-28T06:08:47;4.27;;;3.30;;
11887;SDS011;6003;42.756;23.130;2022-10-28T06:11:14;4.20;;;3.73;;
11887;SDS011;6003;42.756;23.130;2022-10-28T06:13:41;3.50;;;3.13;;
11887;SDS011;6003;42.756;23.130;2022-10-28T06:16:09;3.13;;;2.93;;
11887;SDS011;6003;42.756;23.130;2022-10-28T06:18:36;6.10;;;4.00;;
11887;SDS011;6003;42.756;23.130;2022-10-28T06:21:03;6.37;;;3.87;;
11887;SDS011;6003;42.756;23.130;2022-10-28T06:23:30;3.90;;;3.40;;
11887;SDS011;6003;42.756;23.130;2022-10-28T06:25:57;3.67;;;3.33;;
11887;SDS011;6003;42.756;23.130;2022-10-28T06:28:25;4.57;;;3.80;;
11887;SDS011;6003;42.756;23.130;2022-10-28T06:30:52;3.83;;;3.47;;
11887;SDS011;6003;42.756;23.130;2022-10-28T06:33:20;4.00;;;3.60;;
11887;SDS011;6003;42.756;23.130;2022-10-28T06:35:47;5.20;;;3.50;;
11887;SDS011;6003;42.756;23.130;2022-10-28T06:38:13;3.93;;;3.53;;
11887;SDS011;6003;42.756;23.130;2022-10-28T06:40:40;7.13;;;3.57;;
11887;SDS011;6003;42.756;23.130;2022-10-28T06:43:08;5.60;;;3.70;;
11887;SDS011;6003;42.756;23.130;2022-10-28T06:45:36;5.13;;;3.40;;
11887;SDS011;6003;42.756;23.130;2022-10-28T06:48:04;6.20;;;3.23;;
11887;SDS011;6003;42.756;23.130;2022-10-28T06:50:33;4.67;;;3.30;;
11887;SDS011;6003;42.756;23.130;2022-10-28T06:53:01;7.70;;;3.80;;
11887;SDS011;6003;42.756;23.130;2022-10-28T06:55:28;3.93;;;3.00;;
11887;SDS011;6003;42.756;23.130;2022-10-28T06:57:57;6.13;;;3.50;;
11887;SDS011;6003;42.756;23.130;2022-10-28T07:00:24;4.43;;;3.63;;
11887;SDS011;6003;42.756;23.130;2022-10-28T07:02:51;5.30;;;3.80;;
11887;SDS011;6003;42.756;23.130;2022-10-28T07:05:19;4.47;;;3.27;;
11887;SDS011;6003;42.756;23.130;2022-10-28T07:07:47;5.50;;;3.80;;
11887;SDS011;6003;42.756;23.130;2022-10-28T07:10:14;5.20;;;3.40;;
11887;SDS011;6003;42.756;23.130;2022-10-28T07:12:41;6.00;;;3.23;;
11887;SDS011;6003;42.756;23.130;2022-10-28T07:15:08;3.93;;;3.23;;
11887;SDS011;6003;42.756;23.130;2022-10-28T07:17:36;4.50;;;3.80;;
11887;SDS011;6003;42.756;23.130;2022-10-28T07:20:03;4.00;;;3.60;;
11887;SDS011;6003;42.756;23.130;2022-10-28T07:22:30;3.30;;;3.00;;
11887;SDS011;6003;42.756;23.130;2022-10-28T07:24:58;4.07;;;3.67;;
11887;SDS011;6003;42.756;23.130;2022-10-28T07:27:25;3.97;;;3.53;;
11887;SDS011;6003;42.756;23.130;2022-10-28T07:29:52;4.27;;;3.77;;
11887;SDS011;6003;42.756;23.130;2022-10-28T07:32:18;4.10;;;2.90;;
11887;SDS011;6003;42.756;23.130;2022-10-28T07:34:45;3.83;;;3.07;;
11887;SDS011;6003;42.756;23.130;2022-10-28T07:37:12;3.33;;;2.70;;
11887;SDS011;6003;42.756;23.130;2022-10-28T07:39:39;5.70;;;3.00;;
11887;SDS011;6003;42.756;23.130;2022-10-28T07:42:07;5.00;;;2.80;;
11887;SDS011;6003;42.756;23.130;2022-10-28T07:44:34;5.43;;;3.00;;
11887;SDS011;6003;42.756;23.130;2022-10-28T07:47:00;2.40;;;2.20;;
11887;SDS011;6003;42.756;23.130;2022-10-28T07:49:27;2.77;;;2.20;;
11887;SDS011;6003;42.756;23.130;2022-10-28T07:51:54;2.67;;;2.47;;
11887;SDS011;6003;42.756;23.130;2022-10-28T07:54:21;2.40;;;2.30;;
11887;SDS011;6003;42.756;23.130;2022-10-28T07:56:48;3.23;;;2.63;;
11887;SDS011;6003;42.756;23.130;2022-10-28T07:59:16;6.10;;;2.73;;
11887;SDS011;6003;42.756;23.130;2022-10-28T08:01:45;2.60;;;2.40;;
11887;SDS011;6003;42.756;23.130;2022-10-28T08:04:11;3.30;;;3.00;;
11887;SDS011;6003;42.756;23.130;2022-10-28T08:06:38;2.83;;;2.57;;
11887;SDS011;6003;42.756;23.130;2022-10-28T08:09:05;2.47;;;2.27;;
11887;SDS011;6003;42.756;23.130;2022-10-28T08:11:32;3.40;;;2.67;;
11887;SDS011;6003;42.756;23.130;2022-10-28T08:14:00;2.33;;;2.20;;
11887;SDS011;6003;42.756;23.130;2022-10-28T08:16:28;3.50;;;2.50;;
11887;SDS011;6003;42.756;23.130;2022-10-28T08:18:55;2.97;;;2.70;;
11887;SDS011;6003;42.756;23.130;2022-10-28T08:21:22;2.60;;;2.40;;
11887;SDS011;6003;42.756;23.130;2022-10-28T08:23:52;3.50;;;2.70;;
11887;SDS011;6003;42.756;23.130;2022-10-28T08:26:19;3.30;;;3.00;;
11887;SDS011;6003;42.756;23.130;2022-10-28T08:28:46;2.70;;;2.47;;
11887;SDS011;6003;42.756;23.130;2022-10-28T08:31:12;2.67;;;2.43;;
11887;SDS011;6003;42.756;23.130;2022-10-28T08:33:42;2.43;;;2.20;;
11887;SDS011;6003;42.756;23.130;2022-10-28T08:36:09;3.77;;;2.73;;
11887;SDS011;6003;42.756;23.130;2022-10-28T08:38:37;5.27;;;2.57;;
11887;SDS011;6003;42.756;23.130;2022-10-28T08:41:07;2.97;;;2.70;;
11887;SDS011;6003;42.756;23.130;2022-10-28T08:43:50;3.17;;;2.87;;
11887;SDS011;6003;42.756;23.130;2022-10-28T08:46:41;5.97;;;2.53;;
11887;SDS011;6003;42.756;23.130;2022-10-28T08:49:20;2.83;;;2.60;;
11887;SDS011;6003;42.756;23.130;2022-10-28T08:51:49;3.20;;;2.50;;
11887;SDS011;6003;42.756;23.130;2022-10-28T08:54:21;5.63;;;2.97;;
11887;SDS011;6003;42.756;23.130;2022-10-28T08:56:51;2.80;;;2.60;;
11887;SDS011;6003;42.756;23.130;2022-10-28T08:59:20;3.30;;;2.60;;
11887;SDS011;6003;42.756;23.130;2022-10-28T09:01:55;4.53;;;2.50;;
11887;SDS011;6003;42.756;23.130;2022-10-28T09:04:39;4.03;;;2.40;;
11887;SDS011;6003;42.756;23.130;2022-10-28T09:07:08;3.23;;;2.50;;
11887;SDS011;6003;42.756;23.130;2022-10-28T09:09:41;2.93;;;2.30;;
11887;SDS011;6003;42.756;23.130;2022-10-28T09:12:11;4.57;;;2.70;;
11887;SDS011;6003;42.756;23.130;2022-10-28T09:14:53;2.33;;;1.80;;
11887;SDS011;6003;42.756;23.130;2022-10-28T09:17:33;2.20;;;2.10;;
11887;SDS011;6003;42.756;23.130;2022-10-28T09:20:09;4.23;;;2.73;;
11887;SDS011;6003;42.756;23.130;2022-10-28T09:22:42;3.00;;;2.77;;
11887;SDS011;6003;42.756;23.130;2022-10-28T09:25:19;2.90;;;1.87;;
11887;SDS011;6003;42.756;23.130;2022-10-28T09:27:52;2.50;;;2.40;;
11887;SDS011;6003;42.756;23.130;2022-10-28T09:30:31;2.87;;;2.30;;
11887;SDS011;6003;42.756;23.130;2022-10-28T09:33:09;4.87;;;2.57;;
11887;SDS011;6003;42.756;23.130;2022-10-28T09:35:46;2.07;;;1.97;;
11887;SDS011;6003;42.756;23.130;2022-10-28T09:38:17;4.43;;;2.70;;
11887;SDS011;6003;42.756;23.130;2022-10-28T09:40:52;2.17;;;1.97;;
11887;SDS011;6003;42.756;23.130;2022-10-28T09:43:24;2.80;;;2.60;;
11887;SDS011;6003;42.756;23.130;2022-10-28T09:45:54;3.20;;;2.47;;
11887;SDS011;6003;42.756;23.130;2022-10-28T09:48:28;3.83;;;3.07;;
11887;SDS011;6003;42.756;23.130;2022-10-28T09:50:59;4.80;;;2.77;;
11887;SDS011;6003;42.756;23.130;2022-10-28T09:53:29;4.87;;;2.93;;
11887;SDS011;6003;42.756;23.130;2022-10-28T09:56:04;2.53;;;2.33;;
11887;SDS011;6003;42.756;23.130;2022-10-28T09:58:32;3.30;;;2.40;;
11887;SDS011;6003;42.756;23.130;2022-10-28T10:01:00;3.00;;;2.73;;
11887;SDS011;6003;42.756;23.130;2022-10-28T10:03:29;2.90;;;2.70;;
11887;SDS011;6003;42.756;23.130;2022-10-28T10:05:56;3.47;;;2.70;;
11887;SDS011;6003;42.756;23.130;2022-10-28T10:08:30;3.40;;;3.07;;
11887;SDS011;6003;42.756;23.130;2022-10-28T10:10:58;2.90;;;2.70;;
11887;SDS011;6003;42.756;23.130;2022-10-28T10:13:31;3.00;;;2.70;;
11887;SDS011;6003;42.756;23.130;2022-10-28T10:16:03;3.57;;;2.90;;
11887;SDS011;6003;42.756;23.130;2022-10-28T10:18:36;4.50;;;2.50;;
11887;SDS011;6003;42.756;23.130;2022-10-28T10:21:06;3.43;;;2.67;;
11887;SDS011;6003;42.756;23.130;2022-10-28T10:23:34;2.90;;;2.23;;
11887;SDS011;6003;42.756;23.130;2022-10-28T10:26:03;4.53;;;2.50;;
11887;SDS011;6003;42.756;23.130;2022-10-28T10:28:34;3.20;;;2.30;;
11887;SDS011;6003;42.756;23.130;2022-10-28T10:31:03;4.63;;;2.73;;
11887;SDS011;6003;42.756;23.130;2022-10-28T10:33:33;2.93;;;2.70;;
11887;SDS011;6003;42.756;23.130;2022-10-28T10:36:02;2.23;;;2.03;;
11887;SDS011;6003;42.756;23.130;2022-10-28T10:38:44;2.37;;;1.90;;
11887;SDS011;6003;42.756;23.130;2022-10-28T10:41:12;2.40;;;2.20;;
11887;SDS011;6003;42.756;23.130;2022-10-28T10:43:58;2.83;;;2.13;;
11887;SDS011;6003;42.756;23.130;2022-10-28T10:46:25;4.73;;;2.33;;
11887;SDS011;6003;42.756;23.130;2022-10-28T10:49:04;2.90;;;2.60;;
11887;SDS011;6003;42.756;23.130;2022-10-28T10:51:36;3.40;;;3.10;;
11887;SDS011;6003;42.756;23.130;2022-10-28T10:54:11;1.67;;;1.57;;
11887;SDS011;6003;42.756;23.130;2022-10-28T10:56:40;1.73;;;1.60;;
11887;SDS011;6003;42.756;23.130;2022-10-28T10:59:15;1.80;;;1.70;;
11887;SDS011;6003;42.756;23.130;2022-10-28T11:01:45;1.90;;;1.60;;
11887;SDS011;6003;42.756;23.130;2022-10-28T11:04:14;2.77;;;2.10;;
11887;SDS011;6003;42.756;23.130;2022-10-28T11:06:43;3.60;;;2.37;;
11887;SDS011;6003;42.756;23.130;2022-10-28T11:09:18;2.53;;;1.77;;
11887;SDS011;6003;42.756;23.130;2022-10-28T11:11:48;1.80;;;1.70;;
11887;SDS011;6003;42.756;23.130;2022-10-28T11:14:19;1.93;;;1.83;;
11887;SDS011;6003;42.756;23.130;2022-10-28T11:16:49;1.67;;;1.57;;
11887;SDS011;6003;42.756;23.130;2022-10-28T11:19:18;1.70;;;1.60;;
11887;SDS011;6003;42.756;23.130;2022-10-28T11:21:49;1.30;;;1.30;;
11887;SDS011;6003;42.756;23.130;2022-10-28T11:24:36;1.63;;;1.53;;
11887;SDS011;6003;42.756;23.130;2022-10-28T11:27:14;4.57;;;1.60;;
11887;SDS011;6003;42.756;23.130;2022-10-28T11:29:49;1.60;;;1.40;;
11887;SDS011;6003;42.756;23.130;2022-10-28T11:32:19;2.23;;;1.70;;
11887;SDS011;6003;42.756;23.130;2022-10-28T11:35:00;2.13;;;1.70;;
11887;SDS011;6003;42.756;23.130;2022-10-28T11:37:45;1.03;;;1.03;;
11887;SDS011;6003;42.756;23.130;2022-10-28T11:40:30;1.80;;;1.70;;
11887;SDS011;6003;42.756;23.130;2022-10-28T11:43:12;3.40;;;1.67;;
11887;SDS011;6003;42.756;23.130;2022-10-28T11:45:51;1.73;;;1.63;;
11887;SDS011;6003;42.756;23.130;2022-10-28T11:48:32;1.70;;;1.60;;
11887;SDS011;6003;42.756;23.130;2022-10-28T11:51:25;1.80;;;1.70;;
11887;SDS011;6003;42.756;23.130;2022-10-28T11:54:13;3.23;;;1.70;;
11887;SDS011;6003;42.756;23.130;2022-10-28T11:56:54;4.23;;;1.70;;
11887;SDS011;6003;42.756;23.130;2022-10-28T11:59:47;1.80;;;1.70;;
11887;SDS011;6003;42.756;23.130;2022-10-28T12:02:37;2.00;;;1.90;;
11887;SDS011;6003;42.756;23.130;2022-10-28T12:05:16;2.20;;;2.00;;
11887;SDS011;6003;42.756;23.130;2022-10-28T12:08:01;2.47;;;1.93;;
11887;SDS011;6003;42.756;23.130;2022-10-28T12:10:44;1.87;;;1.77;;
11887;SDS011;6003;42.756;23.130;2022-10-28T12:13:25;1.90;;;1.80;;
11887;SDS011;6003;42.756;23.130;2022-10-28T12:15:57;1.70;;;1.60;;
11887;SDS011;6003;42.756;23.130;2022-10-28T12:18:31;3.13;;;1.50;;
11887;SDS011;6003;42.756;23.130;2022-10-28T12:21:01;4.33;;;1.77;;
11887;SDS011;6003;42.756;23.130;2022-10-28T12:23:37;1.57;;;1.40;;
11887;SDS011;6003;42.756;23.130;2022-10-28T12:26:07;1.67;;;1.57;;
11887;SDS011;6003;42.756;23.130;2022-10-28T12:28:39;3.67;;;2.13;;
11887;SDS011;6003;42.756;23.130;2022-10-28T12:31:14;1.50;;;1.40;;
11887;SDS011;6003;42.756;23.130;2022-10-28T12:33:44;2.13;;;1.93;;
11887;SDS011;6003;42.756;23.130;2022-10-28T12:36:16;2.37;;;2.17;;
11887;SDS011;6003;42.756;23.130;2022-10-28T12:38:50;1.77;;;1.63;;
11887;SDS011;6003;42.756;23.130;2022-10-28T12:41:24;1.53;;;1.43;;
11887;SDS011;6003;42.756;23.130;2022-10-28T12:43:55;1.70;;;1.60;;
11887;SDS011;6003;42.756;23.130;2022-10-28T12:46:29;2.27;;;2.07;;
11887;SDS011;6003;42.756;23.130;2022-10-28T12:49:09;2.03;;;1.50;;
11887;SDS011;6003;42.756;23.130;2022-10-28T12:51:43;1.80;;;1.70;;
11887;SDS011;6003;42.756;23.130;2022-10-28T12:54:14;1.73;;;1.63;;
11887;SDS011;6003;42.756;23.130;2022-10-28T12:56:48;1.70;;;1.60;;
11887;SDS011;6003;42.756;23.130;2022-10-28T12:59:21;1.67;;;1.57;;
11887;SDS011;6003;42.756;23.130;2022-10-28T13:01:54;2.10;;;1.60;;
11887;SDS011;6003;42.756;23.130;2022-10-28T13:04:25;1.40;;;1.30;;
11887;SDS011;6003;42.756;23.130;2022-10-28T13:07:00;2.40;;;2.00;;
11887;SDS011;6003;42.756;23.130;2022-10-28T13:09:38;4.30;;;2.10;;
11887;SDS011;6003;42.756;23.130;2022-10-28T13:18:57;2.03;;;1.83;;
11887;SDS011;6003;42.756;23.130;2022-10-28T13:21:45;1.77;;;1.50;;
11887;SDS011;6003;42.756;23.130;2022-10-28T13:24:26;1.63;;;1.53;;
11887;SDS011;6003;42.756;23.130;2022-10-28T13:27:00;2.17;;;1.97;;
11887;SDS011;6003;42.756;23.130;2022-10-28T13:32:33;1.90;;;1.70;;
11887;SDS011;6003;42.756;23.130;2022-10-28T13:35:09;2.40;;;1.70;;
11887;SDS011;6003;42.756;23.130;2022-10-28T13:37:40;2.83;;;1.60;;
11887;SDS011;6003;42.756;23.130;2022-10-28T13:40:19;1.77;;;1.67;;
11887;SDS011;6003;42.756;23.130;2022-10-28T13:42:49;2.20;;;1.57;;
11887;SDS011;6003;42.756;23.130;2022-10-28T13:48:43;1.90;;;1.80;;
11887;SDS011;6003;42.756;23.130;2022-10-28T13:54:24;1.90;;;1.80;;
11887;SDS011;6003;42.756;23.130;2022-10-28T13:56:53;1.50;;;1.40;;
11887;SDS011;6003;42.756;23.130;2022-10-28T13:59:28;2.00;;;1.80;;
11887;SDS011;6003;42.756;23.130;2022-10-28T14:02:01;1.77;;;1.60;;
11887;SDS011;6003;42.756;23.130;2022-10-28T14:04:32;2.20;;;1.87;;
11887;SDS011;6003;42.756;23.130;2022-10-28T14:07:03;1.90;;;1.80;;
11887;SDS011;6003;42.756;23.130;2022-10-28T14:09:41;1.50;;;1.40;;
11887;SDS011;6003;42.756;23.130;2022-10-28T14:12:13;1.77;;;1.67;;
11887;SDS011;6003;42.756;23.130;2022-10-28T14:14:54;1.90;;;1.80;;
11887;SDS011;6003;42.756;23.130;2022-10-28T14:17:44;2.67;;;1.60;;
11887;SDS011;6003;42.756;23.130;2022-10-28T14:20:24;2.30;;;2.10;;
11887;SDS011;6003;42.756;23.130;2022-10-28T14:22:55;1.93;;;1.83;;
11887;SDS011;6003;42.756;23.130;2022-10-28T14:31:32;1.93;;;1.73;;
11887;SDS011;6003;42.756;23.130;2022-10-28T14:37:05;1.90;;;1.70;;
11887;SDS011;6003;42.756;23.130;2022-10-28T14:39:51;1.47;;;1.37;;
11887;SDS011;6003;42.756;23.130;2022-10-28T14:42:35;1.80;;;1.70;;
11887;SDS011;6003;42.756;23.130;2022-10-28T14:45:34;3.57;;;3.27;;
11887;SDS011;6003;42.756;23.130;2022-10-28T14:51:02;2.70;;;2.50;;
11887;SDS011;6003;42.756;23.130;2022-10-28T14:53:35;3.63;;;2.47;;
11887;SDS011;6003;42.756;23.130;2022-10-28T14:56:06;2.67;;;2.30;;
11887;SDS011;6003;42.756;23.130;2022-10-28T14:58:37;4.87;;;2.60;;
11887;SDS011;6003;42.756;23.130;2022-10-28T15:01:13;5.13;;;2.83;;
11887;SDS011;6003;42.756;23.130;2022-10-28T15:03:47;3.87;;;2.83;;
11887;SDS011;6003;42.756;23.130;2022-10-28T15:09:05;2.93;;;2.17;;
11887;SDS011;6003;42.756;23.130;2022-10-28T15:11:43;2.10;;;1.90;;
11887;SDS011;6003;42.756;23.130;2022-10-28T15:14:13;2.33;;;1.70;;
11887;SDS011;6003;42.756;23.130;2022-10-28T15:16:49;2.43;;;1.40;;
11887;SDS011;6003;42.756;23.130;2022-10-28T15:19:18;1.60;;;1.50;;
11887;SDS011;6003;42.756;23.130;2022-10-28T15:21:59;1.40;;;1.40;;
11887;SDS011;6003;42.756;23.130;2022-10-28T15:24:29;1.60;;;1.50;;
11887;SDS011;6003;42.756;23.130;2022-10-28T15:26:56;1.40;;;1.30;;
11887;SDS011;6003;42.756;23.130;2022-10-28T15:29:23;2.17;;;1.70;;
11887;SDS011;6003;42.756;23.130;2022-10-28T15:32:10;1.57;;;1.47;;
11887;SDS011;6003;42.756;23.130;2022-10-28T15:34:40;1.30;;;1.20;;
11887;SDS011;6003;42.756;23.130;2022-10-28T15:37:08;1.33;;;1.33;;
11887;SDS011;6003;42.756;23.130;2022-10-28T15:39:37;1.83;;;1.63;;
11887;SDS011;6003;42.756;23.130;2022-10-28T15:42:23;1.47;;;1.30;;
11887;SDS011;6003;42.756;23.130;2022-10-28T15:45:01;5.83;;;2.00;;
11887;SDS011;6003;42.756;23.130;2022-10-28T15:47:29;3.17;;;1.80;;
11887;SDS011;6003;42.756;23.130;2022-10-28T15:49:59;2.10;;;2.00;;
11887;SDS011;6003;42.756;23.130;2022-10-28T15:52:41;2.70;;;2.00;;
11887;SDS011;6003;42.756;23.130;2022-10-28T15:58:01;3.70;;;2.40;;
11887;SDS011;6003;42.756;23.130;2022-10-28T16:00:50;11.67;;;3.90;;
11887;SDS011;6003;42.756;23.130;2022-10-28T16:03:23;7.73;;;4.70;;
11887;SDS011;6003;42.756;23.130;2022-10-28T16:05:51;7.20;;;4.17;;
11887;SDS011;6003;42.756;23.130;2022-10-28T16:08:23;8.47;;;3.63;;
11887;SDS011;6003;42.756;23.130;2022-10-28T16:10:54;4.17;;;3.70;;
11887;SDS011;6003;42.756;23.130;2022-10-28T16:13:25;7.10;;;3.13;;